createdAt,value
2024-01-20T00:03:05.503Z,-4.46
2024-01-20T00:08:06.562Z,-4.65
2024-01-20T00:13:07.753Z,-4.76
2024-01-20T00:18:08.895Z,-4.57
2024-01-20T00:23:10.042Z,-4.48
2024-01-20T00:28:11.358Z,-4.37
2024-01-20T00:33:12.414Z,-4.32
2024-01-20T00:38:14.569Z,-4.47
2024-01-20T00:43:13.911Z,-4.62
2024-01-20T00:48:15.008Z,-4.77
2024-01-20T00:53:15.995Z,-4.85
2024-01-20T00:58:16.997Z,-5.05
2024-01-20T01:03:17.980Z,-5.07
2024-01-20T01:08:19.043Z,-5.05
2024-01-20T01:13:20.148Z,-5.05
2024-01-20T01:18:21.177Z,-5.12
2024-01-20T01:23:22.147Z,-5.14
2024-01-20T01:28:23.477Z,-5.17
2024-01-20T01:33:24.531Z,-5.25
2024-01-20T01:38:25.486Z,-5.20
2024-01-20T01:43:26.499Z,-5.31
2024-01-20T01:48:27.502Z,-5.34
2024-01-20T01:53:28.450Z,-5.12
2024-01-20T01:58:29.495Z,-5.12
2024-01-20T02:03:30.667Z,-5.27
2024-01-20T02:08:31.703Z,-5.35
2024-01-20T02:13:32.661Z,-5.33
2024-01-20T02:18:33.719Z,-5.35
2024-01-20T02:23:34.631Z,-5.30
2024-01-20T02:28:35.644Z,-5.34
2024-01-20T02:33:36.849Z,-5.40
2024-01-20T02:38:41.832Z,-5.55
2024-01-20T02:43:37.778Z,-5.31
2024-01-20T02:48:38.853Z,-5.43
2024-01-20T02:53:39.844Z,-5.65
2024-01-20T02:58:40.782Z,-5.61
2024-01-20T03:03:41.794Z,-5.84
2024-01-20T03:08:42.892Z,-5.79
2024-01-20T03:13:43.804Z,-5.72
2024-01-20T03:18:45.235Z,-5.59
2024-01-20T03:23:47.191Z,-5.52
2024-01-20T03:28:47.157Z,-5.54
2024-01-20T03:33:46.220Z,-5.44
2024-01-20T03:38:47.162Z,-5.47
2024-01-20T03:43:48.168Z,-5.31
2024-01-20T03:48:50.214Z,-5.26
2024-01-20T03:53:49.198Z,-5.26
2024-01-20T03:58:51.275Z,-5.34
2024-01-20T04:03:50.292Z,-5.37
2024-01-20T04:08:51.306Z,-5.37
2024-01-20T04:13:52.237Z,-5.30
2024-01-20T04:18:53.332Z,-5.23
2024-01-20T04:23:54.550Z,-5.12
2024-01-20T04:28:55.487Z,-5.38
2024-01-20T04:33:57.536Z,-5.41
2024-01-20T04:38:56.582Z,-5.31
2024-01-20T04:43:58.532Z,-5.27
2024-01-20T04:48:59.676Z,-5.19
2024-01-20T04:53:58.637Z,-5.22
2024-01-20T04:58:59.582Z,-5.35
2024-01-20T05:04:01.733Z,-5.40
2024-01-20T05:09:00.746Z,-5.41
2024-01-20T05:14:01.682Z,-5.54
2024-01-20T05:19:01.871Z,-5.72
2024-01-20T05:24:02.879Z,-5.73
2024-01-20T05:29:05.021Z,-5.98
2024-01-20T05:34:04.398Z,-6.30
2024-01-20T05:39:03.599Z,-6.52
2024-01-20T05:44:04.543Z,-6.30
2024-01-20T05:49:05.661Z,-6.12
2024-01-20T05:54:06.709Z,-6.11
2024-01-20T05:59:07.685Z,-6.15
2024-01-20T06:04:08.800Z,-6.23
2024-01-20T06:09:09.770Z,-6.33
2024-01-20T06:14:10.707Z,-6.31
2024-01-20T06:19:11.750Z,-6.44
2024-01-20T06:24:12.869Z,-6.39
2024-01-20T06:29:14.943Z,-6.61
2024-01-20T06:34:13.845Z,-6.66
2024-01-20T06:39:14.803Z,-6.71
2024-01-20T06:44:15.721Z,-6.47
2024-01-20T06:49:16.753Z,-6.31
2024-01-20T06:54:17.863Z,-6.01
2024-01-20T06:59:18.907Z,-5.67
2024-01-20T07:04:19.888Z,-5.65
2024-01-20T07:09:19.816Z,-5.74
2024-01-20T07:14:20.860Z,-5.77
2024-01-20T07:19:22.818Z,-5.58
2024-01-20T07:24:21.802Z,-5.51
2024-01-20T07:29:22.734Z,-5.33
2024-01-20T07:34:23.885Z,-5.20
2024-01-20T07:39:24.963Z,-5.08
2024-01-20T07:44:26.043Z,-4.97
2024-01-20T07:49:27.040Z,-4.59
2024-01-20T07:54:28.043Z,-4.36
2024-01-20T07:59:28.962Z,-4.05
2024-01-20T08:04:30.011Z,-3.87
2024-01-20T08:09:31.011Z,-3.78
2024-01-20T08:14:31.980Z,-3.81
2024-01-20T08:19:32.099Z,-4.02
2024-01-20T08:24:33.247Z,-3.94
2024-01-20T08:29:34.236Z,-3.78
2024-01-20T08:34:35.273Z,-3.62
2024-01-20T08:39:36.358Z,-3.35
2024-01-20T08:44:37.501Z,-3.10
2024-01-20T08:49:38.824Z,-2.89
2024-01-20T08:54:39.823Z,-2.74
2024-01-20T08:59:40.756Z,-2.58
2024-01-20T09:04:41.791Z,-2.71
2024-01-20T09:09:42.932Z,-2.60
2024-01-20T09:14:44.973Z,-2.43
2024-01-20T09:19:44.085Z,-2.13
2024-01-20T09:24:45.095Z,-2.20
2024-01-20T09:29:47.165Z,-1.96
2024-01-20T09:34:46.165Z,-1.74
2024-01-20T09:39:47.233Z,-1.56
2024-01-20T09:44:48.219Z,-1.48
2024-01-20T09:49:49.306Z,-1.49
2024-01-20T09:54:50.360Z,-1.33
2024-01-20T09:59:51.345Z,-1.23
2024-01-20T10:04:52.405Z,-0.87
2024-01-20T10:09:53.354Z,-0.97
2024-01-20T10:14:55.320Z,-0.62
2024-01-20T10:19:54.340Z,-0.31
2024-01-20T10:24:55.488Z,-0.30
2024-01-20T10:29:56.486Z,0.06
2024-01-20T10:35:00.602Z,0.09
2024-01-20T10:39:58.709Z,-0.68
2024-01-20T10:44:57.772Z,-0.97
2024-01-20T10:49:59.774Z,-0.47
2024-01-20T10:54:59.695Z,0.24
2024-01-20T10:59:59.682Z,-0.04
2024-01-20T11:04:58.570Z,-0.19
2024-01-20T11:09:59.480Z,-0.24
2024-01-20T11:15:00.590Z,-0.26
2024-01-20T11:20:01.651Z,-0.30
2024-01-20T11:25:02.604Z,-0.44
2024-01-20T11:30:02.596Z,-0.24
2024-01-20T11:35:03.535Z,0.07
2024-01-20T11:40:04.429Z,0.15
2024-01-20T11:45:05.503Z,-0.36
2024-01-20T11:50:06.511Z,-0.26
2024-01-20T11:55:07.604Z,0.09
2024-01-20T12:00:09.490Z,0.03
2024-01-20T12:05:15.919Z,0.10
2024-01-20T12:10:08.978Z,0.21
2024-01-20T12:15:09.977Z,0.61
2024-01-20T12:20:10.953Z,0.96
2024-01-20T12:25:13.447Z,1.42
2024-01-20T12:30:12.996Z,1.15
2024-01-20T12:35:13.977Z,0.97
2024-01-20T12:40:15.106Z,1.42
2024-01-20T12:45:16.133Z,1.55
2024-01-20T12:50:17.148Z,1.42
2024-01-20T12:55:18.102Z,1.26
2024-01-20T13:00:19.212Z,1.65
2024-01-20T13:05:20.374Z,1.00
2024-01-20T13:10:21.480Z,1.00
2024-01-20T13:15:22.765Z,1.15
2024-01-20T13:20:23.786Z,1.29
2024-01-20T13:25:26.049Z,1.29
2024-01-20T13:30:25.589Z,1.03
2024-01-20T13:35:26.602Z,0.67
2024-01-20T13:40:27.666Z,0.34
2024-01-20T13:45:28.677Z,0.10
2024-01-20T13:50:29.710Z,-0.08
2024-01-20T13:55:30.716Z,-0.16
2024-01-20T14:00:31.804Z,-0.24
2024-01-20T14:05:32.759Z,-0.31
2024-01-20T14:10:33.786Z,-0.30
2024-01-20T14:15:34.815Z,-0.50
2024-01-20T14:20:35.885Z,-0.68
2024-01-20T14:25:36.952Z,-0.73
2024-01-20T14:30:38.167Z,-0.83
2024-01-20T14:35:39.180Z,-0.94
2024-01-20T14:40:41.108Z,-1.17
2024-01-20T14:45:40.355Z,-1.24
2024-01-20T14:50:41.401Z,-1.24
2024-01-20T14:55:43.323Z,-1.30
2024-01-20T15:00:43.173Z,-1.28
2024-01-20T15:05:42.838Z,-1.49
2024-01-20T15:10:42.428Z,-1.51
2024-01-20T15:15:43.849Z,-1.59
2024-01-20T15:20:44.870Z,-1.59
2024-01-20T15:25:45.839Z,-1.75
2024-01-20T15:30:46.931Z,-2.03
2024-01-20T15:35:48.887Z,-2.18
2024-01-20T15:40:49.999Z,-2.18
2024-01-20T15:45:49.162Z,-2.16
2024-01-20T15:50:50.100Z,-2.26
2024-01-20T15:55:51.119Z,-2.39
2024-01-20T16:00:51.362Z,-2.36
2024-01-20T16:05:52.462Z,-2.50
2024-01-20T16:10:53.475Z,-2.53
2024-01-20T16:15:54.477Z,-2.33
2024-01-20T16:20:55.448Z,-2.61
2024-01-20T16:25:56.462Z,-2.81
2024-01-20T16:30:57.671Z,-2.72
2024-01-20T16:35:58.680Z,-2.75
2024-01-20T16:40:59.673Z,-3.00
2024-01-20T16:46:00.689Z,-3.32
2024-01-20T16:51:01.855Z,-3.47
2024-01-20T16:56:03.824Z,-3.75
2024-01-20T17:01:03.016Z,-3.49
2024-01-20T17:06:04.055Z,-3.13
2024-01-20T17:11:04.064Z,-2.96
2024-01-20T17:16:05.108Z,-3.18
2024-01-20T17:21:06.114Z,-3.17
2024-01-20T17:26:07.120Z,-3.86
2024-01-20T17:31:08.068Z,-4.09
2024-01-20T17:36:09.272Z,-4.18
2024-01-20T17:41:10.217Z,-4.28
2024-01-20T17:46:11.229Z,-4.23
2024-01-20T17:51:12.149Z,-3.94
2024-01-20T17:56:13.141Z,-3.90
2024-01-20T18:01:19.298Z,-4.02
2024-01-20T18:06:14.454Z,-4.12
2024-01-20T18:11:15.504Z,-4.33
2024-01-20T18:16:16.479Z,-4.33
2024-01-20T18:21:17.568Z,-4.46
2024-01-20T18:26:18.592Z,-4.08
2024-01-20T18:31:19.794Z,-4.38
2024-01-20T18:36:21.749Z,-4.55
2024-01-20T18:41:20.736Z,-4.25
2024-01-20T18:46:21.758Z,-4.33
2024-01-20T18:51:22.838Z,-4.57
2024-01-20T18:56:23.854Z,-5.08
2024-01-20T19:01:24.902Z,-5.05
2024-01-20T19:06:25.921Z,-5.23
2024-01-20T19:11:26.921Z,-5.17
2024-01-20T19:16:27.880Z,-5.20
2024-01-20T19:21:29.021Z,-5.41
2024-01-20T19:26:29.993Z,-5.30
2024-01-20T19:31:31.058Z,-4.87
2024-01-20T19:36:32.181Z,-5.05
2024-01-20T19:41:33.202Z,-5.17
2024-01-20T19:46:34.256Z,-5.27
2024-01-20T19:51:35.343Z,-5.41
2024-01-20T19:56:37.253Z,-5.49
2024-01-20T20:01:36.298Z,-5.59
2024-01-20T20:06:38.293Z,-5.83
2024-01-20T20:11:37.328Z,-5.82
2024-01-20T20:16:38.351Z,-5.76
2024-01-20T20:21:39.657Z,-5.62
2024-01-20T20:26:40.614Z,-5.56
2024-01-20T20:31:40.660Z,-5.65
2024-01-20T20:36:41.702Z,-5.61
2024-01-20T20:41:42.586Z,-5.55
2024-01-20T20:46:43.635Z,-5.67
2024-01-20T20:51:45.134Z,-5.69
2024-01-20T20:56:46.207Z,-5.63
2024-01-20T21:01:47.468Z,-5.47
2024-01-20T21:06:48.542Z,-5.40
2024-01-20T21:11:50.536Z,-5.63
2024-01-20T21:16:49.598Z,-5.88
2024-01-20T21:21:51.744Z,-5.80
2024-01-20T21:26:50.690Z,-5.84
2024-01-20T21:31:50.865Z,-6.02
2024-01-20T21:36:52.010Z,-5.94
2024-01-20T21:41:53.056Z,-6.05
2024-01-20T21:46:53.935Z,-6.09
2024-01-20T21:51:55.223Z,-6.02
2024-01-20T21:56:56.217Z,-6.13
2024-01-20T22:01:57.282Z,-6.36
2024-01-20T22:06:58.362Z,-6.33
2024-01-20T22:11:59.387Z,-6.27
2024-01-20T22:17:00.449Z,-6.21
2024-01-20T22:22:01.415Z,-5.95
2024-01-20T22:27:02.507Z,-5.72
2024-01-20T22:32:03.480Z,-5.56
2024-01-20T22:37:04.539Z,-5.97
2024-01-20T22:42:05.567Z,-6.31
2024-01-20T22:47:06.592Z,-6.48
2024-01-20T22:52:07.569Z,-6.50
2024-01-20T22:57:08.685Z,-6.58
2024-01-20T23:02:09.721Z,-6.50
2024-01-20T23:07:09.696Z,-6.30
2024-01-20T23:12:10.850Z,-6.00
2024-01-20T23:17:12.871Z,-5.87
2024-01-20T23:22:12.770Z,-5.98
2024-01-20T23:27:11.811Z,-6.27
2024-01-20T23:32:12.772Z,-6.42
2024-01-20T23:37:14.711Z,-6.34
2024-01-20T23:42:13.819Z,-6.27
2024-01-20T23:47:14.761Z,-6.11
2024-01-20T23:52:15.782Z,-6.02
2024-01-20T23:57:16.839Z,-5.54
